createdAt,value
2022-09-10T00:00:00.827Z,0.40
2022-09-10T00:00:13.459Z,0.40
2022-09-10T00:00:25.475Z,0.40
2022-09-10T00:00:39.501Z,0.40
2022-09-10T00:00:54.722Z,0.40
2022-09-10T00:01:06.645Z,0.50
2022-09-10T00:01:20.993Z,0.50
2022-09-10T00:01:34.222Z,0.40
2022-09-10T00:01:46.247Z,0.40
2022-09-10T00:01:59.412Z,0.47
2022-09-10T00:02:11.593Z,0.50
2022-09-10T00:02:23.506Z,0.50
2022-09-10T00:02:36.222Z,0.50
2022-09-10T00:02:48.151Z,0.47
2022-09-10T00:03:03.098Z,0.47
2022-09-10T00:03:15.087Z,0.50
2022-09-10T00:03:27.503Z,0.50
2022-09-10T00:03:39.645Z,0.50
2022-09-10T00:03:51.657Z,0.40
2022-09-10T00:04:07.620Z,0.40
2022-09-10T00:04:19.534Z,0.43
2022-09-10T00:04:31.426Z,0.47
2022-09-10T00:04:43.354Z,0.40
2022-09-10T00:04:55.233Z,0.40
2022-09-10T00:05:09.817Z,0.40
2022-09-10T00:05:21.697Z,0.40
2022-09-10T00:05:40.987Z,0.50
2022-09-10T00:05:52.916Z,0.40
2022-09-10T00:06:05.125Z,0.40
2022-09-10T00:06:18.807Z,0.50
2022-09-10T00:06:34.270Z,0.50
2022-09-10T00:06:46.280Z,0.40
2022-09-10T00:06:58.265Z,0.40
2022-09-10T00:07:10.228Z,0.40
2022-09-10T00:07:22.877Z,0.43
2022-09-10T00:07:34.788Z,0.50
2022-09-10T00:07:47.541Z,0.50
2022-09-10T00:07:59.502Z,0.40
2022-09-10T00:08:11.420Z,0.40
2022-09-10T00:08:23.345Z,0.55
2022-09-10T00:08:35.686Z,0.60
2022-09-10T00:08:49.138Z,0.50
2022-09-10T00:09:01.251Z,0.45
2022-09-10T00:09:13.686Z,0.43
2022-09-10T00:09:25.660Z,0.57
2022-09-10T00:09:37.833Z,0.50
2022-09-10T00:09:49.799Z,0.50
2022-09-10T00:10:01.668Z,0.40
2022-09-10T00:10:13.685Z,0.43
2022-09-10T00:10:26.308Z,0.47
2022-09-10T00:10:43.377Z,0.40
2022-09-10T00:10:55.258Z,0.40
2022-09-10T00:11:10.191Z,0.50
2022-09-10T00:11:22.157Z,0.60
2022-09-10T00:11:35.216Z,0.55
2022-09-10T00:11:47.361Z,0.40
2022-09-10T00:11:59.256Z,0.40
2022-09-10T00:12:11.370Z,0.40
2022-09-10T00:12:23.360Z,0.50
2022-09-10T00:12:36.860Z,0.50
2022-09-10T00:12:48.861Z,0.57
2022-09-10T00:13:00.746Z,0.60
2022-09-10T00:13:14.005Z,0.50
2022-09-10T00:13:25.908Z,0.40
2022-09-10T00:13:39.557Z,0.45
2022-09-10T00:13:52.452Z,0.60
2022-09-10T00:14:09.309Z,0.60
2022-09-10T00:14:23.271Z,0.45
2022-09-10T00:14:35.915Z,0.50
2022-09-10T00:14:47.796Z,0.50
2022-09-10T00:14:59.671Z,0.45
2022-09-10T00:15:12.217Z,0.47
2022-09-10T00:15:24.123Z,0.50
2022-09-10T00:15:45.256Z,0.50
2022-09-10T00:15:57.153Z,0.40
2022-09-10T00:16:11.976Z,0.40
2022-09-10T00:16:24.436Z,0.40
2022-09-10T00:16:36.412Z,0.40
2022-09-10T00:16:49.671Z,0.50
2022-09-10T00:17:01.914Z,0.40
2022-09-10T00:17:13.799Z,0.40
2022-09-10T00:17:28.970Z,0.52
2022-09-10T00:17:41.097Z,0.70
2022-09-10T00:17:53.012Z,0.63
2022-09-10T00:18:04.955Z,0.50
2022-09-10T00:18:19.396Z,0.65
2022-09-10T00:18:31.706Z,0.60
2022-09-10T00:18:43.662Z,0.50
2022-09-10T00:18:57.380Z,0.50
2022-09-10T00:19:09.406Z,0.45
2022-09-10T00:19:22.076Z,0.50
2022-09-10T00:19:34.030Z,0.50
2022-09-10T00:19:45.903Z,0.47
2022-09-10T00:19:59.273Z,0.45
2022-09-10T00:20:11.366Z,0.40
2022-09-10T00:20:23.414Z,0.40
2022-09-10T00:20:42.272Z,0.40
2022-09-10T00:20:56.170Z,0.50
2022-09-10T00:21:11.824Z,0.50
2022-09-10T00:21:23.819Z,0.47
2022-09-10T00:21:35.776Z,0.50
2022-09-10T00:21:50.319Z,0.50
2022-09-10T00:22:02.216Z,0.57
2022-09-10T00:22:14.097Z,0.50
2022-09-10T00:22:26.411Z,0.50
2022-09-10T00:22:38.981Z,0.40
2022-09-10T00:22:50.852Z,0.40
2022-09-10T00:23:03.018Z,0.40
2022-09-10T00:23:17.072Z,0.40
2022-09-10T00:23:29.916Z,0.50
2022-09-10T00:23:45.510Z,0.50
2022-09-10T00:23:57.698Z,0.47
2022-09-10T00:24:09.969Z,0.45
2022-09-10T00:24:22.652Z,0.47
2022-09-10T00:24:34.531Z,0.40
2022-09-10T00:24:46.441Z,0.40
2022-09-10T00:24:58.341Z,0.40
2022-09-10T00:25:10.289Z,0.40
2022-09-10T00:25:22.195Z,0.40
2022-09-10T00:25:34.104Z,0.43
2022-09-10T00:25:46.755Z,0.50
2022-09-10T00:25:58.790Z,0.50
2022-09-10T00:26:17.981Z,0.50
2022-09-10T00:26:35.180Z,0.50
2022-09-10T00:26:47.194Z,0.50
2022-09-10T00:26:59.677Z,0.50
2022-09-10T00:27:11.567Z,0.47
2022-09-10T00:27:24.200Z,0.50
2022-09-10T00:27:36.419Z,0.60
2022-09-10T00:27:51.439Z,0.55
2022-09-10T00:28:03.359Z,0.40
2022-09-10T00:28:16.205Z,0.50
2022-09-10T00:28:28.480Z,0.70
2022-09-10T00:28:41.063Z,0.70
2022-09-10T00:28:55.920Z,0.50
2022-09-10T00:29:10.542Z,0.60
2022-09-10T00:29:22.818Z,0.50
2022-09-10T00:29:34.751Z,0.40
2022-09-10T00:29:46.825Z,0.50
2022-09-10T00:30:00.336Z,0.50
2022-09-10T00:30:12.820Z,0.50
2022-09-10T00:30:26.937Z,0.50
2022-09-10T00:30:46.528Z,0.47
2022-09-10T00:30:58.664Z,0.50
2022-09-10T00:31:11.292Z,0.60
2022-09-10T00:31:24.088Z,0.60
2022-09-10T00:31:37.324Z,0.63
2022-09-10T00:31:49.982Z,0.60
2022-09-10T00:32:04.225Z,0.50
2022-09-10T00:32:16.120Z,0.50
2022-09-10T00:32:28.004Z,0.60
2022-09-10T00:32:40.045Z,0.50
2022-09-10T00:32:52.920Z,0.57
2022-09-10T00:33:04.811Z,0.50
2022-09-10T00:33:19.111Z,0.50
2022-09-10T00:33:31.019Z,0.50
2022-09-10T00:33:43.192Z,0.57
2022-09-10T00:33:55.223Z,0.50
2022-09-10T00:34:09.035Z,0.50
2022-09-10T00:34:20.943Z,0.55
2022-09-10T00:34:32.835Z,0.57
2022-09-10T00:34:44.834Z,0.52
2022-09-10T00:34:56.761Z,0.50
2022-09-10T00:35:08.930Z,0.50
2022-09-10T00:35:21.362Z,0.50
2022-09-10T00:35:34.133Z,0.50
2022-09-10T00:35:46.865Z,0.50
2022-09-10T00:35:58.853Z,0.52
2022-09-10T00:36:18.369Z,0.47
2022-09-10T00:36:33.136Z,0.40
2022-09-10T00:36:45.144Z,0.50
2022-09-10T00:36:57.528Z,0.60
2022-09-10T00:37:09.844Z,0.60
2022-09-10T00:37:22.175Z,0.60
2022-09-10T00:37:34.484Z,0.60
2022-09-10T00:37:46.779Z,0.50
2022-09-10T00:37:58.721Z,0.50
2022-09-10T00:38:11.755Z,0.60
2022-09-10T00:38:23.659Z,0.60
2022-09-10T00:38:35.961Z,0.60
2022-09-10T00:38:50.338Z,0.52
2022-09-10T00:39:06.207Z,0.50
2022-09-10T00:39:20.278Z,0.50
2022-09-10T00:39:35.112Z,0.45
2022-09-10T00:39:49.966Z,0.50
2022-09-10T00:40:02.391Z,0.60
2022-09-10T00:40:16.559Z,0.60
2022-09-10T00:40:28.750Z,0.70
2022-09-10T00:40:41.356Z,0.70
2022-09-10T00:40:53.268Z,0.40
2022-09-10T00:41:06.725Z,0.40
2022-09-10T00:41:19.979Z,0.57
2022-09-10T00:41:33.921Z,0.60
2022-09-10T00:41:48.611Z,0.50
2022-09-10T00:42:00.525Z,0.57
2022-09-10T00:42:12.510Z,0.60
2022-09-10T00:42:25.687Z,0.60
2022-09-10T00:42:37.628Z,0.60
2022-09-10T00:42:49.558Z,0.60
2022-09-10T00:43:01.672Z,0.57
2022-09-10T00:43:16.479Z,0.45
2022-09-10T00:43:46.731Z,0.50
2022-09-10T00:44:02.317Z,0.40
2022-09-10T00:44:41.968Z,0.40
2022-09-10T00:44:58.549Z,0.47
2022-09-10T00:45:22.283Z,0.60
2022-09-10T00:45:34.315Z,0.70
2022-09-10T00:45:52.657Z,0.50
2022-09-10T00:46:04.782Z,0.50
2022-09-10T00:46:36.935Z,0.57
2022-09-10T00:46:51.894Z,0.57
2022-09-10T00:47:05.841Z,0.50
2022-09-10T00:47:26.716Z,0.60
2022-09-10T00:47:39.741Z,0.55
2022-09-10T00:47:54.214Z,0.77
2022-09-10T00:48:18.282Z,0.70
2022-09-10T00:48:32.093Z,0.40
2022-09-10T00:48:43.988Z,0.50
2022-09-10T00:48:58.419Z,0.50
2022-09-10T00:49:25.912Z,0.40
2022-09-10T00:49:42.235Z,0.50
2022-09-10T00:50:25.552Z,0.55
2022-09-10T00:50:42.059Z,0.50
2022-09-10T00:50:54.951Z,0.50
2022-09-10T00:51:09.545Z,0.50
2022-09-10T00:51:22.262Z,0.50
2022-09-10T00:51:36.171Z,0.60
2022-09-10T00:51:52.606Z,0.60
2022-09-10T00:52:05.248Z,0.50
2022-09-10T00:52:17.900Z,0.50
2022-09-10T00:52:30.094Z,0.50
2022-09-10T00:52:43.019Z,0.50
2022-09-10T00:53:02.336Z,0.50
2022-09-10T00:53:19.403Z,0.50
2022-09-10T00:53:32.271Z,0.60
2022-09-10T00:53:44.248Z,0.60
2022-09-10T00:53:57.233Z,0.50
2022-09-10T00:54:09.604Z,0.50
2022-09-10T00:54:25.791Z,0.50
2022-09-10T00:54:41.048Z,0.40
2022-09-10T00:54:53.285Z,0.40
2022-09-10T00:55:06.117Z,0.50
2022-09-10T00:55:18.916Z,0.57
2022-09-10T00:55:31.560Z,0.60
2022-09-10T00:55:49.415Z,0.63
2022-09-10T00:56:05.168Z,0.50
2022-09-10T00:56:17.299Z,0.40
2022-09-10T00:56:29.703Z,0.50
2022-09-10T00:56:43.018Z,0.50
2022-09-10T00:56:59.647Z,0.43
2022-09-10T00:57:17.112Z,0.50
2022-09-10T00:57:29.390Z,0.60
2022-09-10T00:57:42.685Z,0.50
2022-09-10T00:57:58.619Z,0.50
2022-09-10T00:58:13.835Z,0.57
2022-09-10T00:58:27.995Z,0.50
2022-09-10T00:58:40.049Z,0.50
2022-09-10T00:58:52.676Z,0.52
2022-09-10T00:59:08.150Z,0.60
2022-09-10T00:59:23.502Z,0.55
2022-09-10T00:59:35.800Z,0.50
2022-09-10T00:59:52.852Z,0.45
2022-09-10T01:00:09.915Z,0.50
2022-09-10T01:00:22.446Z,0.60
2022-09-10T01:00:34.916Z,0.50
2022-09-10T01:00:47.149Z,0.40
2022-09-10T01:01:02.381Z,0.50
2022-09-10T01:01:14.678Z,0.60
2022-09-10T01:01:26.641Z,0.50
2022-09-10T01:01:40.388Z,0.50
2022-09-10T01:01:52.607Z,0.50
2022-09-10T01:02:04.902Z,0.60
2022-09-10T01:02:16.867Z,0.60
2022-09-10T01:02:28.776Z,0.60
2022-09-10T01:02:40.872Z,0.60
2022-09-10T01:02:54.922Z,0.60
2022-09-10T01:03:11.183Z,0.47
2022-09-10T01:03:25.738Z,0.50
2022-09-10T01:03:40.179Z,0.60
2022-09-10T01:03:53.165Z,0.55
2022-09-10T01:04:07.209Z,0.50
2022-09-10T01:04:19.153Z,0.50
2022-09-10T01:04:32.312Z,0.50
2022-09-10T01:04:44.719Z,0.52
2022-09-10T01:04:58.119Z,0.57
2022-09-10T01:05:11.401Z,0.50
2022-09-10T01:05:24.800Z,0.40
2022-09-10T01:05:38.142Z,0.50
2022-09-10T01:05:51.174Z,0.60
2022-09-10T01:06:03.458Z,0.60
2022-09-10T01:06:15.831Z,0.60
2022-09-10T01:06:27.956Z,0.57
2022-09-10T01:06:44.304Z,0.60
2022-09-10T01:06:56.722Z,0.50
2022-09-10T01:07:10.497Z,0.55
2022-09-10T01:07:24.076Z,0.60
2022-09-10T01:07:36.446Z,0.60
2022-09-10T01:07:48.372Z,0.57
2022-09-10T01:08:00.281Z,0.57
2022-09-10T01:08:16.514Z,0.50
2022-09-10T01:08:28.517Z,0.40
2022-09-10T01:08:40.440Z,0.40
2022-09-10T01:08:52.476Z,0.73
2022-09-10T01:09:05.195Z,0.80
2022-09-10T01:09:18.497Z,0.60
2022-09-10T01:09:30.697Z,0.50
2022-09-10T01:09:43.092Z,0.60
2022-09-10T01:09:58.839Z,0.60
2022-09-10T01:10:17.939Z,0.50
2022-09-10T01:10:35.164Z,0.50
2022-09-10T01:10:58.677Z,0.55
2022-09-10T01:11:26.487Z,0.60
2022-09-10T01:12:05.578Z,0.50
2022-09-10T01:12:42.215Z,0.45
2022-09-10T01:12:56.952Z,0.47
2022-09-10T01:13:42.540Z,0.32
2022-09-10T01:14:17.530Z,0.70
2022-09-10T01:14:54.919Z,0.40
2022-09-10T01:15:23.065Z,0.60
2022-09-10T01:15:46.696Z,0.60
2022-09-10T01:16:09.845Z,0.50
2022-09-10T01:16:36.995Z,0.50
2022-09-10T01:16:57.874Z,0.50
2022-09-10T01:17:27.820Z,0.50
2022-09-10T01:18:03.983Z,0.45
2022-09-10T01:18:46.505Z,0.75
2022-09-10T01:19:02.717Z,0.50
2022-09-10T01:19:23.340Z,0.63
2022-09-10T01:19:51.208Z,0.60
2022-09-10T01:20:38.472Z,0.50
2022-09-10T01:21:26.443Z,0.60
2022-09-10T01:21:44.222Z,0.52
2022-09-10T01:22:32.971Z,0.50
2022-09-10T01:22:50.777Z,0.60
2022-09-10T01:23:37.521Z,0.60
2022-09-10T01:24:10.751Z,0.55
2022-09-10T01:24:50.986Z,0.40
2022-09-10T01:25:59.907Z,0.65
2022-09-10T01:26:49.274Z,0.50
2022-09-10T01:27:26.128Z,0.57
2022-09-10T01:27:55.768Z,0.60
2022-09-10T01:28:17.832Z,0.50
2022-09-10T01:28:39.902Z,0.60
2022-09-10T01:29:02.148Z,0.60
2022-09-10T01:29:48.579Z,0.70
2022-09-10T01:30:03.588Z,0.60
2022-09-10T01:30:27.445Z,0.60
2022-09-10T01:30:46.777Z,0.45
2022-09-10T01:31:11.231Z,0.57
2022-09-10T01:31:33.815Z,0.70
2022-09-10T01:32:06.825Z,0.60
2022-09-10T01:32:44.099Z,0.50
2022-09-10T01:33:01.890Z,0.60
2022-09-10T01:33:33.995Z,0.57
2022-09-10T01:33:58.873Z,0.43
2022-09-10T01:34:32.714Z,0.40
2022-09-10T01:35:01.527Z,0.70
2022-09-10T01:35:24.886Z,0.50
2022-09-10T01:35:57.688Z,0.40
2022-09-10T01:36:19.236Z,0.60
2022-09-10T01:36:38.595Z,0.50
2022-09-10T01:36:56.189Z,0.50
2022-09-10T01:37:21.511Z,0.50
2022-09-10T01:37:36.877Z,0.32
2022-09-10T01:37:55.019Z,0.30
2022-09-10T01:38:12.545Z,0.45
2022-09-10T01:38:27.857Z,0.60
2022-09-10T01:38:41.965Z,0.50
2022-09-10T01:38:54.318Z,0.50
2022-09-10T01:39:21.996Z,0.50
2022-09-10T01:39:34.684Z,0.50
2022-09-10T01:39:50.334Z,0.60
2022-09-10T01:40:07.357Z,0.50
2022-09-10T01:40:19.525Z,0.50
2022-09-10T01:40:44.124Z,0.60
2022-09-10T01:41:14.056Z,0.55
2022-09-10T01:41:29.013Z,0.50
2022-09-10T01:41:41.315Z,0.40
2022-09-10T01:42:00.503Z,0.40
2022-09-10T01:42:15.301Z,0.40
2022-09-10T01:42:30.482Z,0.50
2022-09-10T01:42:42.523Z,0.50
2022-09-10T01:42:58.912Z,0.50
2022-09-10T01:43:14.411Z,0.60
2022-09-10T01:43:39.563Z,0.60
2022-09-10T01:43:51.662Z,0.60
2022-09-10T01:44:11.521Z,0.50
2022-09-10T01:44:55.541Z,0.47
2022-09-10T01:45:13.478Z,0.65
2022-09-10T01:45:29.941Z,0.60
2022-09-10T01:46:16.021Z,0.50
2022-09-10T01:46:55.611Z,0.55
2022-09-10T01:47:33.981Z,0.60
2022-09-10T01:47:55.181Z,0.50
2022-09-10T01:49:12.402Z,0.60
2022-09-10T01:50:00.260Z,0.43
2022-09-10T01:50:28.770Z,0.50
2022-09-10T01:50:53.739Z,0.50
2022-09-10T01:51:11.863Z,0.40
2022-09-10T01:51:47.289Z,0.38
2022-09-10T01:52:25.329Z,0.50
2022-09-10T01:52:56.038Z,0.50
2022-09-10T01:53:35.588Z,0.50
2022-09-10T01:54:29.747Z,0.40
2022-09-10T01:55:25.921Z,0.30
2022-09-10T01:55:45.908Z,0.40
2022-09-10T01:56:03.876Z,0.57
2022-09-10T01:56:58.227Z,0.65
2022-09-10T01:57:24.748Z,0.50
2022-09-10T01:58:22.475Z,0.43
2022-09-10T01:59:23.377Z,0.47
2022-09-10T01:59:54.824Z,0.40
2022-09-10T02:00:10.817Z,0.40
2022-09-10T02:00:25.365Z,0.45
2022-09-10T02:00:54.153Z,0.43
2022-09-10T02:01:38.514Z,0.30
2022-09-10T02:02:06.756Z,0.40
2022-09-10T02:02:31.191Z,0.50
2022-09-10T02:02:58.084Z,0.55
2022-09-10T02:03:24.344Z,0.60
2022-09-10T02:03:39.327Z,0.30
2022-09-10T02:03:56.930Z,0.40
2022-09-10T02:04:24.224Z,0.43
2022-09-10T02:04:44.344Z,0.30
2022-09-10T02:05:03.833Z,0.40
2022-09-10T02:05:27.462Z,0.40
2022-09-10T02:05:46.156Z,0.40
2022-09-10T02:06:11.854Z,0.35
2022-09-10T02:06:30.484Z,0.40
2022-09-10T02:06:51.838Z,0.40
2022-09-10T02:07:05.954Z,0.40
2022-09-10T02:07:34.091Z,0.40
2022-09-10T02:07:48.970Z,0.40
2022-09-10T02:08:09.951Z,0.30
2022-09-10T02:08:35.532Z,0.40
2022-09-10T02:08:57.984Z,0.40
2022-09-10T02:09:17.293Z,0.32
2022-09-10T02:09:31.614Z,0.45
2022-09-10T02:10:05.254Z,0.40
2022-09-10T02:10:18.643Z,0.30
2022-09-10T02:10:38.043Z,0.38
2022-09-10T02:11:03.735Z,0.30
2022-09-10T02:11:21.339Z,0.43
2022-09-10T02:11:58.481Z,0.40
2022-09-10T02:12:23.060Z,0.40
2022-09-10T02:12:38.182Z,0.47
2022-09-10T02:12:53.261Z,0.40
2022-09-10T02:13:05.291Z,0.32
2022-09-10T02:13:17.320Z,0.40
2022-09-10T02:13:32.370Z,0.40
2022-09-10T02:13:47.472Z,0.50
2022-09-10T02:14:01.989Z,0.50
2022-09-10T02:14:17.380Z,0.43
2022-09-10T02:14:31.853Z,0.50
2022-09-10T02:14:45.340Z,0.57
2022-09-10T02:15:04.163Z,0.40
2022-09-10T02:15:22.177Z,0.40
2022-09-10T02:15:40.788Z,0.50
2022-09-10T02:15:55.532Z,0.43
2022-09-10T02:16:11.372Z,0.45
2022-09-10T02:16:31.651Z,0.40
2022-09-10T02:16:51.501Z,0.40
2022-09-10T02:17:21.590Z,0.40
2022-09-10T02:17:42.656Z,0.63
2022-09-10T02:17:58.920Z,0.30
2022-09-10T02:18:13.689Z,0.30
2022-09-10T02:18:34.306Z,0.40
2022-09-10T02:18:49.651Z,0.40
2022-09-10T02:19:10.141Z,0.40
2022-09-10T02:19:30.688Z,0.30
2022-09-10T02:19:45.988Z,0.40
2022-09-10T02:19:59.650Z,0.45
2022-09-10T02:20:14.499Z,0.30
2022-09-10T02:20:29.666Z,0.30
2022-09-10T02:20:42.680Z,0.40
2022-09-10T02:20:56.537Z,0.40
2022-09-10T02:21:11.378Z,0.40
2022-09-10T02:21:25.987Z,0.38
2022-09-10T02:21:38.469Z,0.40
2022-09-10T02:21:51.820Z,0.40
2022-09-10T02:22:04.708Z,0.40
2022-09-10T02:22:16.825Z,0.40
2022-09-10T02:22:31.847Z,0.40
2022-09-10T02:22:54.040Z,0.35
2022-09-10T02:23:11.777Z,0.35
2022-09-10T02:23:40.115Z,0.30
2022-09-10T02:23:59.150Z,0.40
2022-09-10T02:24:14.283Z,0.40
2022-09-10T02:24:27.220Z,0.30
2022-09-10T02:24:39.288Z,0.32
2022-09-10T02:24:54.256Z,0.40
2022-09-10T02:25:06.956Z,0.38
2022-09-10T02:25:20.069Z,0.40
2022-09-10T02:25:35.938Z,0.40
2022-09-10T02:25:50.535Z,0.40
2022-09-10T02:26:02.620Z,0.40
2022-09-10T02:26:15.538Z,0.40
2022-09-10T02:26:27.664Z,0.30
2022-09-10T02:26:44.129Z,0.40
2022-09-10T02:26:56.257Z,0.38
2022-09-10T02:27:08.400Z,0.30
2022-09-10T02:27:21.654Z,0.30
2022-09-10T02:27:34.175Z,0.40
2022-09-10T02:27:46.313Z,0.47
2022-09-10T02:28:01.377Z,0.50
2022-09-10T02:28:13.468Z,0.40
2022-09-10T02:28:25.586Z,0.38
2022-09-10T02:28:38.403Z,0.40
2022-09-10T02:28:50.634Z,0.45
2022-09-10T02:29:02.886Z,0.50
2022-09-10T02:29:16.812Z,0.40
2022-09-10T02:29:40.305Z,0.35
2022-09-10T02:29:55.447Z,0.30
2022-09-10T02:30:08.064Z,0.32
2022-09-10T02:30:20.295Z,0.40
2022-09-10T02:30:33.742Z,0.50
2022-09-10T02:30:46.853Z,0.50
2022-09-10T02:30:59.025Z,0.47
2022-09-10T02:31:22.284Z,0.40
2022-09-10T02:31:34.531Z,0.30
2022-09-10T02:31:47.486Z,0.40
2022-09-10T02:31:59.975Z,0.40
2022-09-10T02:32:12.253Z,0.40
2022-09-10T02:32:24.476Z,0.43
2022-09-10T02:32:36.696Z,0.40
2022-09-10T02:32:48.735Z,0.40
2022-09-10T02:33:00.862Z,0.40
2022-09-10T02:33:31.337Z,0.35
2022-09-10T02:33:44.786Z,0.60
2022-09-10T02:33:56.945Z,0.60
2022-09-10T02:34:08.985Z,0.65
2022-09-10T02:34:21.914Z,0.50
2022-09-10T02:34:34.973Z,0.40
2022-09-10T02:34:47.091Z,0.40
2022-09-10T02:34:59.135Z,0.40
2022-09-10T02:35:11.370Z,0.40
2022-09-10T02:35:23.613Z,0.40
2022-09-10T02:35:35.902Z,0.40
2022-09-10T02:35:48.501Z,0.40
2022-09-10T02:36:00.877Z,0.40
2022-09-10T02:36:13.081Z,0.40
2022-09-10T02:36:27.821Z,0.35
2022-09-10T02:36:42.859Z,0.38
2022-09-10T02:36:57.560Z,0.40
2022-09-10T02:37:10.953Z,0.40
2022-09-10T02:37:24.316Z,0.40
2022-09-10T02:37:40.021Z,0.43
2022-09-10T02:37:53.154Z,0.50
2022-09-10T02:38:05.951Z,0.30
2022-09-10T02:38:18.210Z,0.38
2022-09-10T02:38:30.322Z,0.40
2022-09-10T02:38:42.358Z,0.50
2022-09-10T02:38:56.882Z,0.40
2022-09-10T02:39:09.210Z,0.30
2022-09-10T02:39:21.223Z,0.50
2022-09-10T02:39:33.344Z,0.50
2022-09-10T02:39:46.667Z,0.43
2022-09-10T02:39:59.441Z,0.35
2022-09-10T02:40:12.069Z,0.30
2022-09-10T02:40:25.090Z,0.30
2022-09-10T02:40:37.441Z,0.30
2022-09-10T02:40:49.595Z,0.35
2022-09-10T02:41:03.143Z,0.40
2022-09-10T02:41:15.661Z,0.50
2022-09-10T02:41:27.868Z,0.40
2022-09-10T02:41:40.871Z,0.50
2022-09-10T02:41:52.971Z,0.40
2022-09-10T02:42:05.358Z,0.30
2022-09-10T02:42:18.061Z,0.30
2022-09-10T02:42:30.219Z,0.38
2022-09-10T02:42:46.811Z,0.40
2022-09-10T02:42:58.990Z,0.40
2022-09-10T02:43:10.998Z,0.40
2022-09-10T02:43:23.310Z,0.30
2022-09-10T02:43:38.081Z,0.30
2022-09-10T02:43:50.179Z,0.40
2022-09-10T02:44:02.673Z,0.40
2022-09-10T02:44:14.781Z,0.30
2022-09-10T02:44:28.253Z,0.30
2022-09-10T02:44:40.330Z,0.30
2022-09-10T02:44:56.561Z,0.38
2022-09-10T02:45:09.068Z,0.40
2022-09-10T02:45:21.225Z,0.40
2022-09-10T02:45:33.283Z,0.40
2022-09-10T02:45:45.348Z,0.40
2022-09-10T02:45:58.833Z,0.40
2022-09-10T02:46:11.218Z,0.50
2022-09-10T02:46:23.290Z,0.40
2022-09-10T02:46:35.406Z,0.40
2022-09-10T02:46:47.701Z,0.40
2022-09-10T02:46:59.737Z,0.35
2022-09-10T02:47:11.739Z,0.40
2022-09-10T02:47:24.955Z,0.40
2022-09-10T02:47:36.933Z,0.50
2022-09-10T02:47:51.269Z,0.40
2022-09-10T02:48:06.231Z,0.30
2022-09-10T02:48:18.347Z,0.32
2022-09-10T02:48:31.242Z,0.30
2022-09-10T02:48:45.438Z,0.40
2022-09-10T02:48:57.705Z,0.47
2022-09-10T02:49:10.027Z,0.40
2022-09-10T02:49:22.086Z,0.47
2022-09-10T02:49:34.719Z,0.40
2022-09-10T02:49:46.915Z,0.38
2022-09-10T02:50:02.208Z,0.35
2022-09-10T02:50:17.081Z,0.40
2022-09-10T02:50:29.086Z,0.40
2022-09-10T02:50:41.221Z,0.40
2022-09-10T02:50:54.048Z,0.40
2022-09-10T02:51:06.445Z,0.40
2022-09-10T02:51:18.435Z,0.40
2022-09-10T02:51:31.775Z,0.30
2022-09-10T02:51:44.700Z,0.30
2022-09-10T02:51:58.215Z,0.35
2022-09-10T02:52:10.327Z,0.40
2022-09-10T02:52:22.387Z,0.50
2022-09-10T02:52:34.924Z,0.50
2022-09-10T02:52:47.041Z,0.50
2022-09-10T02:52:59.304Z,0.45
2022-09-10T02:53:12.388Z,0.50
2022-09-10T02:53:26.016Z,0.50
2022-09-10T02:53:38.685Z,0.40
2022-09-10T02:53:50.797Z,0.32
2022-09-10T02:54:04.407Z,0.30
2022-09-10T02:54:17.253Z,0.30
2022-09-10T02:54:29.595Z,0.32
2022-09-10T02:54:41.705Z,0.40
2022-09-10T02:54:53.746Z,0.40
2022-09-10T02:55:06.256Z,0.35
2022-09-10T02:55:18.786Z,0.40
2022-09-10T02:55:31.928Z,0.40
2022-09-10T02:55:47.745Z,0.40
2022-09-10T02:56:01.023Z,0.30
2022-09-10T02:56:13.745Z,0.32
2022-09-10T02:56:25.725Z,0.40
2022-09-10T02:56:37.774Z,0.40
2022-09-10T02:56:49.900Z,0.32
2022-09-10T02:57:02.144Z,0.28
2022-09-10T02:57:14.242Z,0.30
2022-09-10T02:57:26.922Z,0.35
2022-09-10T02:57:41.057Z,0.40
2022-09-10T02:57:53.968Z,0.40
2022-09-10T02:58:06.094Z,0.40
2022-09-10T02:58:18.330Z,0.50
2022-09-10T02:58:34.241Z,0.47
2022-09-10T02:58:46.531Z,0.50
2022-09-10T02:58:58.575Z,0.40
2022-09-10T02:59:10.701Z,0.38
2022-09-10T02:59:25.414Z,0.30
2022-09-10T02:59:37.615Z,0.40
2022-09-10T02:59:49.742Z,0.43
2022-09-10T03:00:03.084Z,0.50
2022-09-10T03:00:15.225Z,0.40
2022-09-10T03:00:27.472Z,0.40
2022-09-10T03:00:40.253Z,0.43
2022-09-10T03:00:53.635Z,0.40
2022-09-10T03:01:14.655Z,0.35
2022-09-10T03:01:29.266Z,0.40
2022-09-10T03:01:41.419Z,0.40
2022-09-10T03:01:54.493Z,0.30
2022-09-10T03:02:06.638Z,0.32
2022-09-10T03:02:18.711Z,0.38
2022-09-10T03:02:30.736Z,0.40
2022-09-10T03:02:42.792Z,0.40
2022-09-10T03:03:00.863Z,0.35
2022-09-10T03:03:14.783Z,0.30
2022-09-10T03:03:28.841Z,0.30
2022-09-10T03:03:41.711Z,0.32
2022-09-10T03:03:55.861Z,0.30
2022-09-10T03:04:08.151Z,0.30
2022-09-10T03:04:20.461Z,0.30
2022-09-10T03:04:32.512Z,0.40
2022-09-10T03:04:45.870Z,0.50
2022-09-10T03:04:58.353Z,0.40
2022-09-10T03:05:10.425Z,0.30
2022-09-10T03:05:23.954Z,0.30
2022-09-10T03:05:38.390Z,0.40
2022-09-10T03:05:50.398Z,0.30
2022-09-10T03:06:03.683Z,0.30
2022-09-10T03:06:16.103Z,0.35
2022-09-10T03:06:29.455Z,0.50
2022-09-10T03:06:44.140Z,0.50
2022-09-10T03:06:56.173Z,0.57
2022-09-10T03:07:08.500Z,0.55
2022-09-10T03:07:21.627Z,0.60
2022-09-10T03:07:36.996Z,0.40
2022-09-10T03:07:50.068Z,0.40
2022-09-10T03:08:02.439Z,0.40
2022-09-10T03:08:14.539Z,0.40
2022-09-10T03:08:26.644Z,0.35
2022-09-10T03:08:38.768Z,0.40
2022-09-10T03:08:51.835Z,0.40
2022-09-10T03:09:03.957Z,0.40
2022-09-10T03:09:17.204Z,0.40
2022-09-10T03:09:29.367Z,0.30
2022-09-10T03:09:41.467Z,0.30
2022-09-10T03:09:55.120Z,0.30
2022-09-10T03:10:07.487Z,0.30
2022-09-10T03:10:19.538Z,0.30
2022-09-10T03:10:32.162Z,0.30
2022-09-10T03:10:47.039Z,0.30
2022-09-10T03:10:59.596Z,0.40
2022-09-10T03:11:13.016Z,0.40
2022-09-10T03:11:25.427Z,0.40
2022-09-10T03:11:40.683Z,0.30
2022-09-10T03:11:54.789Z,0.32
2022-09-10T03:12:09.459Z,0.43
2022-09-10T03:12:21.550Z,0.40
2022-09-10T03:12:33.606Z,0.32
2022-09-10T03:12:47.149Z,0.40
2022-09-10T03:13:00.333Z,0.40
2022-09-10T03:13:12.709Z,0.40
2022-09-10T03:13:28.681Z,0.45
2022-09-10T03:13:41.118Z,0.47
2022-09-10T03:13:53.878Z,0.40
2022-09-10T03:14:06.584Z,0.40
2022-09-10T03:14:23.459Z,0.38
2022-09-10T03:14:35.546Z,0.30
2022-09-10T03:14:48.662Z,0.30
2022-09-10T03:15:00.756Z,0.30
2022-09-10T03:15:12.888Z,0.35
2022-09-10T03:15:25.555Z,0.30
2022-09-10T03:15:38.232Z,0.30
2022-09-10T03:15:50.264Z,0.30
2022-09-10T03:16:04.071Z,0.38
2022-09-10T03:16:17.080Z,0.40
2022-09-10T03:16:29.129Z,0.38
2022-09-10T03:16:41.342Z,0.38
2022-09-10T03:16:53.496Z,0.40
2022-09-10T03:17:06.198Z,0.40
2022-09-10T03:17:18.208Z,0.32
2022-09-10T03:17:30.347Z,0.32
2022-09-10T03:17:42.445Z,0.38
2022-09-10T03:17:54.956Z,0.40
2022-09-10T03:18:07.010Z,0.40
2022-09-10T03:18:19.736Z,0.40
2022-09-10T03:18:31.903Z,0.30
2022-09-10T03:18:44.413Z,0.30
2022-09-10T03:19:00.255Z,0.40
2022-09-10T03:19:14.074Z,0.40
2022-09-10T03:19:26.714Z,0.40
2022-09-10T03:19:41.127Z,0.40
2022-09-10T03:19:53.218Z,0.40
2022-09-10T03:20:06.157Z,0.35
2022-09-10T03:20:18.329Z,0.30
2022-09-10T03:20:31.201Z,0.30
2022-09-10T03:20:43.608Z,0.40
2022-09-10T03:21:08.713Z,0.40
2022-09-10T03:21:25.354Z,0.40
2022-09-10T03:21:37.554Z,0.30
2022-09-10T03:21:49.742Z,0.30
2022-09-10T03:22:03.192Z,0.30
2022-09-10T03:22:17.285Z,0.30
2022-09-10T03:22:29.302Z,0.40
2022-09-10T03:22:41.499Z,0.30
2022-09-10T03:22:53.612Z,0.30
2022-09-10T03:23:05.603Z,0.30
2022-09-10T03:23:18.812Z,0.30
2022-09-10T03:23:30.904Z,0.30
2022-09-10T03:23:44.969Z,0.30
2022-09-10T03:23:58.253Z,0.30
2022-09-10T03:24:13.395Z,0.50
2022-09-10T03:24:28.557Z,0.40
2022-09-10T03:24:40.617Z,0.30
2022-09-10T03:24:52.836Z,0.30
2022-09-10T03:25:06.200Z,0.30
2022-09-10T03:25:19.681Z,0.32
2022-09-10T03:25:31.645Z,0.30
2022-09-10T03:25:45.967Z,0.30
2022-09-10T03:26:04.436Z,0.30
2022-09-10T03:26:18.100Z,0.30
2022-09-10T03:26:31.474Z,0.30
2022-09-10T03:26:44.406Z,0.30
2022-09-10T03:26:57.076Z,0.30
2022-09-10T03:27:09.581Z,0.30
2022-09-10T03:27:22.900Z,0.32
2022-09-10T03:27:35.030Z,0.40
2022-09-10T03:27:47.024Z,0.40
2022-09-10T03:27:59.831Z,0.30
2022-09-10T03:28:12.211Z,0.30
2022-09-10T03:28:24.463Z,0.30
2022-09-10T03:28:37.664Z,0.32
2022-09-10T03:28:52.900Z,0.50
2022-09-10T03:29:05.099Z,0.50
2022-09-10T03:29:17.250Z,0.30
2022-09-10T03:29:30.293Z,0.38
2022-09-10T03:29:43.339Z,0.38
2022-09-10T03:29:55.441Z,0.30
2022-09-10T03:30:08.320Z,0.30
2022-09-10T03:30:21.215Z,0.30
2022-09-10T03:30:33.361Z,0.30
2022-09-10T03:30:45.403Z,0.40
2022-09-10T03:30:57.418Z,0.32
2022-09-10T03:31:10.390Z,0.30
2022-09-10T03:31:22.534Z,0.30
2022-09-10T03:31:35.551Z,0.32
2022-09-10T03:31:47.654Z,0.40
2022-09-10T03:32:01.153Z,0.30
2022-09-10T03:32:15.430Z,0.30